Latest Coastal Weather Observations for Walpole North

IDW60701

Issued at 2:42 am WST Friday 6 March 2015 (issued every 10 minutes, with the page automatically refreshed every 10 minutes)

About coastal observations | Map of coastal stations | Coastal observations for WA | Marine services | Other Formats
Station Details ID: 009998 Name: NORTH WALPOLE Lat: -34.95 Lon: 116.72 Height: 73.0 m
Data from the previous 72 hours. | See also: Recent months at Walpole North
Date/Time
WST
Temp

°C
Wind Pressure Rain
since 9am
mm
Weather Cloud Vis
km
Sea
Height
m
Swell
Dir
 
Speed
knots
Gust
knots
hPa Trend Height
m
Period
s
Dir
06/02:30am 14.7 E 5 6 1023.6 - 0.0 - - - - - - -
06/02:00am 14.9 ENE 6 8 1023.6 - 0.0 - - - - - - -
06/01:30am 15.2 E 6 8 1023.9 - 0.0 - - - - - - -
06/01:00am 15.6 E 6 9 1024.1 - 0.0 - - - - - - -
06/12:30am 15.8 ENE 6 8 1024.4 - 0.0 - - - - - - -
06/12:00am 16.2 ENE 7 10 1024.5 - 0.0 - - - - - - -
 
Date/Time
WST
Temp

°C
Wind Pressure Rain
since 9am
mm
Weather Cloud Vis
km
Sea
Height
m
Swell
Dir
 
Speed
knots
Gust
knots
hPa Trend Height
m
Period
s
Dir
05/11:30pm 16.5 ENE 8 13 1024.4 - 0.0 - - - - - - -
05/11:00pm 17.0 ENE 8 15 1024.6 - 0.0 - - - - - - -
05/10:30pm 17.0 E 8 11 1024.7 - 0.0 - - - - - - -
05/10:00pm 17.4 E 8 11 1024.7 - 0.0 - - - - - - -
05/09:30pm 17.6 E 7 11 1024.7 - 0.0 - - - - - - -
05/09:00pm 18.0 E 9 14 1024.8 - 0.0 - - - - - - -
05/08:30pm 17.9 ESE 8 12 1024.7 - 0.0 - - - - - - -
05/08:00pm 18.1 SE 8 10 1024.4 - 0.0 - - - - - - -
05/07:30pm 18.3 SE 7 11 1024.0 - 0.0 - - - - - - -
05/07:00pm 18.9 SE 10 14 1023.8 - 0.0 - - - - - - -
05/06:30pm 19.6 SE 9 13 1023.8 - 0.0 - - - - - - -
05/06:00pm 20.6 ESE 10 14 1023.7 - 0.0 - - - - - - -
05/05:30pm 21.4 SE 10 18 1023.6 - 0.0 - - - - - - -
05/05:00pm 22.1 ESE 12 18 1023.5 - 0.0 - - - - - - -
05/04:30pm 23.1 ESE 11 15 1023.4 - 0.0 - - - - - - -
05/04:00pm 23.7 SE 11 16 1023.3 - 0.0 - - - - - - -
05/03:30pm 24.1 SE 12 18 1023.5 - 0.0 - - - - - - -
05/03:00pm 24.7 ESE 13 19 1023.7 - 0.0 - - - - - - -
05/02:30pm 25.1 SE 14 19 1023.7 - 0.0 - - - - - - -
05/02:00pm 26.0 ESE 13 19 1024.1 - 0.0 - - - - - - -
05/01:30pm 28.6 NE 3 9 1024.3 - 0.0 - - - - - - -
05/01:00pm 26.5 NE 5 10 1024.6 - 0.0 - - - - - - -
05/12:30pm 26.4 ENE 6 9 1024.9 - 0.0 - - - - - - -
05/12:00pm 25.3 ENE 8 14 1025.4 - 0.0 - - - - - - -
05/11:30am 24.5 ESE 10 16 1025.7 - 0.0 - - - - - - -
05/11:00am 23.8 E 9 13 1026.2 - 0.0 - - - - - - -
05/10:30am 23.3 ENE 7 13 1026.6 - 0.0 - - - - - - -
05/10:00am 22.2 ENE 10 15 1026.9 - 0.0 - - - - - - -
05/09:30am 21.2 ENE 9 16 1026.8 - 0.0 - - - - - - -
05/09:00am 20.3 ENE 9 15 1026.9 - 0.0 - - - - - - -
05/08:30am 19.4 ENE 8 13 1027.0 - 0.0 - - - - - - -
05/08:00am 17.7 ENE 5 7 1027.1 - 0.0 - - - - - - -
05/07:30am 17.2 E 4 6 1026.8 - 0.0 - - - - - - -
05/07:00am 15.6 ENE 3 5 1026.6 - 0.0 - - - - - - -
05/06:30am 14.7 E 4 6 1026.4 - 0.0 - - - - - - -
05/06:00am 14.4 E 4 5 1026.1 - 0.0 - - - - - - -
05/05:30am 14.9 E 4 7 1025.9 - 0.0 - - - - - - -
05/05:00am 15.3 E 4 6 1025.9 - 0.0 - - - - - - -
05/04:30am 16.0 E 5 7 1025.9 - 0.0 - - - - - - -
05/04:00am 16.1 E 5 7 1025.9 - 0.0 - - - - - - -
05/03:30am 15.9 E 6 10 1025.8 - 0.0 - - - - - - -
05/03:00am 15.9 E 5 8 1025.9 - 0.0 - - - - - - -
05/02:30am 15.8 E 5 7 1025.7 - 0.0 - - - - - - -
05/02:00am 15.7 E 5 8 1025.8 - 0.0 - - - - - - -
05/01:30am 14.9 E 4 5 1025.8 - 0.0 - - - - - - -
05/01:00am 14.0 ESE 2 4 1025.9 - 0.0 - - - - - - -
05/12:30am 14.0 ESE 4 5 1026.0 - 0.0 - - - - - - -
05/12:00am 15.3 E 5 7 1026.3 - 0.0 - - - - - - -
 
Date/Time
WST
Temp

°C
Wind Pressure Rain
since 9am
mm
Weather Cloud Vis
km
Sea
Height
m
Swell
Dir
 
Speed
knots
Gust
knots
hPa Trend Height
m
Period
s
Dir
04/11:30pm 15.4 E 5 8 1026.4 - 0.0 - - - - - - -
04/11:00pm 15.3 E 5 8 1026.4 - 0.0 - - - - - - -
04/10:30pm 16.1 E 6 11 1026.4 - 0.0 - - - - - - -
04/10:00pm 16.2 E 7 11 1026.6 - 0.0 - - - - - - -
04/09:30pm 16.4 ESE 6 10 1026.9 - 0.0 - - - - - - -
04/09:00pm 16.6 ESE 8 11 1026.7 - 0.0 - - - - - - -
04/08:30pm 16.8 ESE 7 11 1026.4 - 0.0 - - - - - - -
04/08:00pm 16.9 ESE 7 14 1026.1 - 0.0 - - - - - - -
04/07:30pm 17.3 ESE 8 11 1025.7 - 0.0 - - - - - - -
04/07:00pm 17.7 ESE 9 13 1025.4 - 0.0 - - - - - - -
04/06:30pm 18.2 ESE 11 17 1025.3 - 0.0 - - - - - - -
04/06:00pm 18.9 SE 12 20 1024.9 - 0.0 - - - - - - -
04/05:30pm 19.5 ESE 12 19 1024.8 - 0.0 - - - - - - -
04/05:00pm 20.4 ESE 14 18 1024.5 - 0.0 - - - - - - -
04/04:30pm 20.8 ESE 14 19 1024.2 - 0.0 - - - - - - -
04/04:00pm 21.1 ESE 13 21 1024.2 - 0.0 - - - - - - -
04/03:30pm 22.0 SE 13 21 1024.2 - 0.0 - - - - - - -
04/03:00pm 22.9 SE 11 17 1024.1 - 0.0 - - - - - - -
04/02:30pm 22.8 SSE 9 19 1023.9 - 0.0 - - - - - - -
04/02:00pm 22.6 SSE 9 17 1024.1 - 0.0 - - - - - - -
04/01:30pm 22.9 SSE 9 15 1024.2 - 0.0 - - - - - - -
04/01:00pm 22.3 SSE 10 21 1024.2 - 0.0 - - - - - - -
04/12:30pm 22.4 SSE 10 17 1024.2 - 0.0 - - - - - - -
04/12:00pm 23.5 ENE 6 11 1024.6 - 0.0 - - - - - - -
04/11:30am 22.8 ESE 6 10 1025.1 - 0.0 - - - - - - -
04/11:00am 21.4 NE 7 12 1025.6 - 0.0 - - - - - - -
04/10:30am 20.9 ESE 9 14 1026.0 - 0.0 - - - - - - -
04/10:00am 20.3 ESE 8 14 1026.2 - 0.0 - - - - - - -
04/09:30am 20.0 E 8 12 1026.2 - 0.0 - - - - - - -
04/09:00am 18.7 ENE 7 9 1026.3 - 0.0 - - - - - - -
04/08:30am 17.1 ENE 6 9 1026.1 - 0.0 - - - - - - -
04/08:00am 15.5 ENE 6 8 1025.9 - 0.0 - - - - - - -
04/07:30am 13.5 ENE 1 4 1025.6 - 0.0 - - - - - - -
04/07:00am 12.1 CALM 0 0 1025.6 - 0.0 - - - - - - -
04/06:30am 11.2 CALM 0 0 1025.3 - 0.0 - - - - - - -
04/06:00am 10.9 CALM 0 0 1025.0 - 0.0 - - - - - - -
04/05:30am 10.8 CALM 0 0 1024.7 - 0.0 - - - - - - -
04/05:00am 11.4 CALM 0 0 1024.4 - 0.0 - - - - - - -
04/04:30am 11.3 CALM 0 0 1024.0 - 0.0 - - - - - - -
04/04:00am 11.6 CALM 0 0 1023.9 - 0.0 - - - - - - -
04/03:30am 11.8 CALM 0 0 1023.8 - 0.0 - - - - - - -
04/03:00am 11.8 CALM 0 0 1023.6 - 0.0 - - - - - - -
04/02:30am 11.5 CALM 0 0 1023.4 - 0.0 - - - - - - -
04/02:00am 12.7 ENE 4 5 1023.3 - 0.0 - - - - - - -
04/01:30am 13.3 NE 4 6 1023.5 - 0.0 - - - - - - -
04/01:00am 13.6 ENE 5 7 1023.7 - 0.0 - - - - - - -
04/12:30am 13.0 ENE 3 4 1024.0 - 0.0 - - - - - - -
04/12:00am 13.4 ENE 4 6 1024.0 - 0.0 - - - - - - -
 
Date/Time
WST
Temp

°C
Wind Pressure Rain
since 9am
mm
Weather Cloud Vis
km
Sea
Height
m
Swell
Dir
 
Speed
knots
Gust
knots
hPa Trend Height
m
Period
s
Dir
03/11:30pm 13.7 NE 4 5 1024.0 - 0.0 - - - - - - -
03/11:00pm 13.9 ENE 4 6 1024.0 - 0.0 - - - - - - -
03/10:30pm 14.3 E 4 6 1024.1 - 0.0 - - - - - - -
03/10:00pm 14.4 E 5 7 1024.3 - 0.0 - - - - - - -
03/09:30pm 14.5 ESE 5 8 1024.5 - 0.0 - - - - - - -
03/09:00pm 14.9 ESE 6 7 1024.4 - 0.0 - - - - - - -
03/08:30pm 14.9 E 5 7 1024.1 - 0.0 - - - - - - -
03/08:00pm 15.4 ESE 6 8 1024.0 - 0.0 - - - - - - -
03/07:30pm 15.7 ESE 7 9 1023.7 - 0.0 - - - - - - -
03/07:00pm 15.9 SE 6 8 1023.5 - 0.0 - - - - - - -
03/06:30pm 17.2 SE 9 12 1023.3 - 0.0 - - - - - - -
03/06:00pm 17.9 SE 9 13 1023.0 - 0.0 - - - - - - -
03/05:30pm 18.4 SSE 10 15 1022.8 - 0.0 - - - - - - -
03/05:00pm 19.1 SSE 8 15 1022.7 - 0.0 - - - - - - -
03/04:30pm 19.3 SSE 10 17 1022.7 - 0.0 - - - - - - -
03/04:00pm 20.3 SSE 9 15 1022.7 - 0.0 - - - - - - -
03/03:30pm 19.7 SSE 10 19 1022.7 - 0.0 - - - - - - -
03/03:00pm 21.0 SSE 9 15 1022.7 - 0.0 - - - - - - -
03/02:30pm 21.6 SSE 8 14 1022.8 - 0.0 - - - - - - -
03/02:00pm 21.0 S 8 14 1022.9 - 0.0 - - - - - - -
03/01:30pm 21.4 SSE 9 17 1023.0 - 0.0 - - - - - - -
03/01:00pm 20.9 SSE 9 15 1023.3 - 0.0 - - - - - - -
03/12:30pm 21.7 SSE 8 14 1023.5 - 0.0 - - - - - - -
03/12:00pm 21.2 S 7 12 1023.7 - 0.0 - - - - - - -
03/11:30am 20.6 S 8 15 1023.9 - 0.0 - - - - - - -
03/11:00am 20.2 SSE 8 13 1024.2 - 0.0 - - - - - - -
03/10:30am 20.1 ESE 6 13 1024.3 - 0.0 - - - - - - -
03/10:00am 19.0 ESE 8 13 1024.4 - 0.0 - - - - - - -
03/09:30am 18.7 ENE 6 11 1024.3 - 0.0 - - - - - - -
03/09:00am 18.8 ENE 7 11 1024.2 - 0.0 - - - - - - -
03/08:30am 17.3 ENE 7 10 1024.1 - 0.0 - - - - - - -
03/08:00am 15.5 ENE 5 7 1024.2 - 0.0 - - - - - - -
03/07:30am 15.0 ENE 3 6 1024.2 - 0.0 - - - - - - -
03/07:00am 10.6 NE 1 4 1024.1 - 0.0 - - - - - - -
03/06:30am 11.3 NE 4 6 1023.8 - 0.0 - - - - - - -
03/06:00am 12.5 NE 6 9 1023.5 - 0.0 - - - - - - -
03/05:30am 11.9 NE 5 7 1023.4 - 0.0 - - - - - - -
03/05:00am 9.5 CALM 0 0 1023.1 - 0.0 - - - - - - -
03/04:30am 9.8 CALM 0 0 1022.8 - 0.0 - - - - - - -
03/04:00am 10.3 CALM 0 0 1022.5 - 0.0 - - - - - - -
03/03:30am 9.6 CALM 0 0 1022.4 - 0.0 - - - - - - -
03/03:00am 10.3 NE 3 5 1022.4 - 0.0 - - - - - - -

Other Formats:

Comma delimited format used in spreadsheet applications
http://www.bom.gov.au/fwo/IDW60701/IDW60701.95647.axf

JavaScript Object Notation format (JSON) in row-major order
http://www.bom.gov.au/fwo/IDW60701/IDW60701.95647.json